Aviation Digital Data Service (ADDS)

Output produced by TAFs form (1740 UTC 24 November 2014)
found at http://aviationweather.gov/adds/tafs/
 
KCNY 241726Z 2418/2518 30010G20KT P6SM SCT060 
     FM250000 29006KT P6SM SKC 
     FM251600 VRB03KT P6SM SCT060